Lewisburg, Tennessee
Current Conditions -  °F | °C
As of 2:15 PM on Friday 31 Oct 2014 (Local Time) from KSYI Reporting Station
Overcast Overcast  
Wind Chill: 50°   Ceiling: 2600
Heat Index: 50°   Visibility: 5mi
Dew Point: 46°   Wind: 12mph
Humidity: 87%   Direction: 320°NW
Pressure: 30"   Gusts: NA
Location:  35.45°N, 86.79°W
Report Text: KSYI 311915Z AUTO 32010KT 5SM SCT021 BKN026 OVC034 10/08 A3000 RMK
Loading
Personal Weather Stations






























Interactive Weather Map
Tropical Storm Tracking
New forecast layout! Learn more

10-Day Weather Forecast

Advertisements
Track Severe Weather on mobile